Time;durP1;ratioP1;P1;durP2;ratioP2;P2;SDS_P1;SDS_P2;PMS_P1;PMS_P2;Temp;Humidity;BMP_temperature;BMP_pressure;BME280_temperature;BME280_humidity;BME280_pressure;Samples;Min_cycle;Max_cycle;Signal;HPM_P1;HPM_P2
2021/01/04 00:01:45;;;;;;;31.30;21.52;;;;;;;1.58;95.91;99663.31;1836743;78;21133;-62
2021/01/04 00:04:37;;;;;;;37.45;23.38;;;;;;;1.63;96.20;99661.65;1836893;78;21044;-63
2021/01/04 00:07:48;;;;;;;27.17;19.07;;;;;;;1.71;96.32;99663.84;1836923;77;21049;-63
2021/01/04 00:11:12;;;;;;;32.15;20.77;;;;;;;1.79;96.27;99671.15;1818376;78;21402;-62
2021/01/04 00:13:57;;;;;;;30.20;20.60;;;;;;;1.83;96.07;99661.36;1768889;81;21175;-62
2021/01/04 00:16:48;;;;;;;;;;;;;;;1.87;95.82;99648.98;1931121;74;23144;-61
2021/01/04 00:19:28;;;;;;;28.32;20.12;;;;;;;1.82;95.78;99656.23;1874813;75;20207;-62
2021/01/04 00:22:07;;;;;;;39.50;25.72;;;;;;;1.83;95.79;99649.83;1897623;75;21170;-63
2021/01/04 00:24:40;;;;;;;43.65;26.60;;;;;;;1.81;95.71;99646.38;1897919;75;21981;-62
2021/01/04 00:27:32;;;;;;;51.50;30.48;;;;;;;1.83;95.61;99647.27;1897650;75;21027;-63
2021/01/04 00:30:03;;;;;;;35.63;22.02;;;;;;;1.83;95.65;99641.28;1897913;75;21031;-63
2021/01/04 00:32:34;;;;;;;33.10;21.70;;;;;;;1.83;95.60;99637.02;1897778;75;21075;-63
2021/01/04 00:35:07;;;;;;;30.30;20.45;;;;;;;1.81;95.59;99637.41;1897856;75;21351;-63
2021/01/04 00:38:23;;;;;;;31.70;21.82;;;;;;;1.78;95.59;99637.83;1897857;75;20968;-63
2021/01/04 00:41:16;;;;;;;31.70;21.68;;;;;;;1.76;95.58;99634.41;1896618;75;21161;-61
2021/01/04 00:43:50;;;;;;;30.37;20.40;;;;;;;1.75;95.82;99630.13;1897787;75;21178;-62
2021/01/04 00:46:23;;;;;;;32.10;21.50;;;;;;;1.77;95.91;99633.13;1897812;75;21023;-62
2021/01/04 00:49:15;;;;;;;34.38;21.90;;;;;;;1.81;96.06;99633.56;1863437;75;21322;-64
2021/01/04 00:52:18;;;;;;;37.50;23.18;;;;;;;1.88;96.01;99639.58;1847473;76;27995;-61
2021/01/04 00:54:54;;;;;;;35.20;22.70;;;;;;;1.89;96.02;99637.45;1817868;79;21096;-62
2021/01/04 00:57:35;;;;;;;;;;;;;;;1.94;96.04;99639.20;1819902;79;22236;-63
2021/01/04 01:00:28;;;;;;;35.92;22.50;;;;;;;2.00;96.01;99637.53;1818080;79;20595;-64
2021/01/04 01:03:36;;;;;;;25.97;18.80;;;;;;;2.02;96.00;99635.81;1797043;79;21601;-61
2021/01/04 01:06:47;;;;;;;25.20;18.60;;;;;;;2.06;95.90;99633.72;1782345;79;21124;-63
2021/01/04 01:09:15;;;;;;;32.17;20.30;;;;;;;2.08;95.65;99628.16;1781867;80;21120;-63
2021/01/04 01:12:06;;;;;;;49.38;29.00;;;;;;;2.10;95.68;99631.58;1756657;80;21324;-61
2021/01/04 01:14:59;;;;;;;;;;;;;;;2.17;95.72;99625.63;1849996;76;22714;-62
2021/01/04 01:17:53;;;;;;;35.70;22.95;;;;;;;2.17;95.67;99632.05;1745375;81;20315;-62
2021/01/04 01:20:21;;;;;;;34.25;23.10;;;;;;;2.21;95.61;99629.94;1750775;82;21160;-61
2021/01/04 01:22:49;;;;;;;33.05;22.07;;;;;;;2.27;95.53;99628.69;1726600;82;21140;-62
2021/01/04 01:25:28;;;;;;;39.63;24.85;;;;;;;2.35;95.55;99629.57;1750785;82;21626;-62
2021/01/04 01:28:42;;;;;;;32.53;22.15;;;;;;;2.43;95.47;99617.63;1751243;82;21167;-61
2021/01/04 01:31:45;;;;;;;30.75;20.80;;;;;;;2.50;95.21;99605.67;1751221;82;21079;-63
2021/01/04 01:34:33;;;;;;;38.92;26.33;;;;;;;2.52;94.79;99607.81;1750998;82;21379;-63
2021/01/04 01:37:24;;;;;;;35.78;23.32;;;;;;;2.49;94.48;99609.95;1751188;82;21107;-63
2021/01/04 01:40:06;;;;;;;36.88;24.07;;;;;;;2.47;94.45;99618.05;1725276;83;21199;-63
2021/01/04 01:43:12;;;;;;;38.67;24.45;;;;;;;2.48;94.34;99614.63;1847449;76;28601;-62
2021/01/04 01:46:22;;;;;;;40.67;24.40;;;;;;;2.46;94.15;99618.05;1818170;79;21042;-64
2021/01/04 01:49:04;;;;;;;37.75;24.40;;;;;;;2.47;94.08;99615.91;1818042;79;21363;-62
2021/01/04 01:52:09;;;;;;;32.20;21.05;;;;;;;2.45;93.82;99612.48;1817857;79;21133;-61
2021/01/04 01:55:00;;;;;;;26.20;18.50;;;;;;;2.42;93.73;99615.06;1818017;79;21093;-63
2021/01/04 01:58:04;;;;;;;25.65;17.52;;;;;;;2.35;93.60;99618.02;1817906;79;22283;-62
2021/01/04 02:00:51;;;;;;;25.80;16.87;;;;;;;2.28;93.63;99609.88;1890171;76;28047;-63
2021/01/04 02:03:58;;;;;;;25.35;16.82;;;;;;;2.18;93.72;99609.39;1860843;77;21056;-63
2021/01/04 02:06:40;;;;;;;18.57;14.18;;;;;;;2.13;93.83;99601.70;1860863;77;21247;-62
2021/01/04 02:09:15;;;;;;;22.65;16.73;;;;;;;2.08;93.79;99603.80;1813581;78;21146;-62
2021/01/04 02:12:22;;;;;;;21.50;16.07;;;;;;;2.00;93.91;99606.76;1814971;79;21093;-62
2021/01/04 02:15:14;;;;;;;21.17;15.30;;;;;;;1.93;94.16;99604.59;1814928;79;21082;-64
2021/01/04 02:18:13;;;;;;;21.57;14.93;;;;;;;1.86;94.35;99604.98;1814941;79;21149;-62
2021/01/04 02:20:56;;;;;;;19.60;15.38;;;;;;;1.81;94.47;99609.64;1813967;79;21558;-62
2021/01/04 02:24:01;;;;;;;21.68;15.38;;;;;;;1.79;94.78;99613.91;1813847;79;21162;-62
2021/01/04 02:26:29;;;;;;;21.87;15.30;;;;;;;1.78;94.95;99614.33;1814676;79;21078;-62
2021/01/04 02:29:09;;;;;;;21.62;16.02;;;;;;;1.80;95.18;99617.75;1814890;79;21054;-62
2021/01/04 02:31:38;;;;;;;20.72;14.40;;;;;;;1.81;95.28;99617.33;1814852;79;21488;-62
2021/01/04 02:34:09;;;;;;;21.05;15.88;;;;;;;1.83;95.41;99610.53;1814821;79;21375;-62
2021/01/04 02:36:41;;;;;;;21.77;15.80;;;;;;;1.88;95.53;99615.23;1814646;79;21134;-62
2021/01/04 02:39:16;;;;;;;19.42;14.73;;;;;;;1.89;95.60;99616.55;1814895;79;21034;-62
2021/01/04 02:42:09;;;;;;;20.25;15.68;;;;;;;1.92;95.57;99611.84;1814885;79;21115;-62
2021/01/04 02:44:37;;;;;;;19.75;14.70;;;;;;;1.91;95.69;99605.87;1814955;78;21505;-62
2021/01/04 02:48:01;;;;;;;22.13;15.18;;;;;;;1.92;95.75;99608.86;1814724;79;21192;-62
2021/01/04 02:50:47;;;;;;;21.25;15.45;;;;;;;1.92;95.75;99600.31;1814523;79;21087;-62
2021/01/04 02:53:52;;;;;;;18.80;14.77;;;;;;;1.92;95.90;99596.04;1814883;79;21071;-62
2021/01/04 02:56:43;;;;;;;21.20;15.95;;;;;;;1.95;96.16;99603.73;1814856;79;21480;-61
2021/01/04 02:59:23;;;;;;;22.45;15.80;;;;;;;1.98;96.19;99605.91;1789399;79;21130;-63
2021/01/04 03:02:38;;;;;;;20.52;15.70;;;;;;;2.01;96.36;99594.36;1803699;79;21253;-63
2021/01/04 03:05:09;;;;;;;26.60;18.50;;;;;;;2.06;96.35;99592.27;1803502;79;21091;-62
2021/01/04 03:07:37;;;;;;;42.27;23.98;;;;;;;2.12;96.33;99586.31;1779908;79;21099;-62
2021/01/04 03:10:16;;;;;;;27.87;18.98;;;;;;;2.16;96.44;99577.33;1803548;79;21111;-62
2021/01/04 03:12:44;;;;;;;28.15;19.52;;;;;;;2.21;96.58;99579.50;1801913;79;21142;-62
2021/01/04 03:15:30;;;;;;;29.92;19.15;;;;;;;2.29;96.58;99583.80;1803145;79;21375;-62
2021/01/04 03:18:39;;;;;;;34.50;19.25;;;;;;;2.35;96.57;99582.11;1803166;79;21509;-63
2021/01/04 03:21:08;;;;;;;27.58;18.70;;;;;;;2.42;96.21;99577.86;1803098;79;21115;-62
2021/01/04 03:23:36;;;;;;;22.62;17.15;;;;;;;2.52;96.25;99583.43;1803063;79;21828;-62
2021/01/04 03:26:11;;;;;;;27.70;18.25;;;;;;;2.63;96.28;99592.42;1803206;79;21103;-62
2021/01/04 03:28:38;;;;;;;26.52;17.42;;;;;;;2.68;95.84;99598.43;1803244;79;22240;-62
2021/01/04 03:31:06;;;;;;;28.52;19.50;;;;;;;2.70;95.74;99600.13;1802963;79;21064;-62
2021/01/04 03:33:34;;;;;;;29.92;18.77;;;;;;;2.76;95.77;99603.15;1802908;79;21094;-62
2021/01/04 03:36:04;;;;;;;29.10;18.57;;;;;;;2.85;95.75;99608.72;1802992;79;21142;-62
2021/01/04 03:38:32;;;;;;;25.75;18.55;;;;;;;2.95;95.66;99611.75;1802783;79;21190;-62
2021/01/04 03:41:02;;;;;;;23.15;16.65;;;;;;;3.01;95.14;99607.88;1803052;79;21372;-62
2021/01/04 03:43:30;;;;;;;21.75;15.38;;;;;;;3.02;94.71;99608.30;1802533;79;21102;-62
2021/01/04 03:45:58;;;;;;;19.57;15.35;;;;;;;2.99;94.32;99608.31;1803063;79;21104;-62
2021/01/04 03:48:26;;;;;;;21.33;15.63;;;;;;;2.95;94.18;99614.31;1802684;79;21055;-62
2021/01/04 03:50:54;;;;;;;21.52;15.78;;;;;;;2.91;94.06;99610.87;1803120;79;21135;-62
2021/01/04 03:53:21;;;;;;;19.17;15.60;;;;;;;2.86;93.92;99610.42;1802759;79;21407;-62
2021/01/04 03:55:49;;;;;;;21.55;16.35;;;;;;;2.80;93.89;99607.45;1802944;79;21075;-61
2021/01/04 03:58:17;;;;;;;21.10;15.38;;;;;;;2.79;94.06;99600.14;1803062;79;21517;-64
2021/01/04 04:00:45;;;;;;;28.45;18.73;;;;;;;2.85;94.19;99603.16;1823137;78;21412;-61
2021/01/04 04:03:13;;;;;;;24.30;18.32;;;;;;;2.91;94.31;99594.61;1831470;78;21111;-62
2021/01/04 04:05:41;;;;;;;31.97;20.00;;;;;;;2.97;94.20;99587.77;1831419;78;21211;-62
2021/01/04 04:08:09;;;;;;;33.95;22.10;;;;;;;2.96;93.87;99591.20;1831483;78;21113;-62
2021/01/04 04:10:36;;;;;;;27.82;17.98;;;;;;;2.91;93.74;99589.47;1831359;78;21063;-62
2021/01/04 04:13:05;;;;;;;23.92;16.65;;;;;;;2.84;93.71;99596.73;1831338;78;21117;-62
2021/01/04 04:15:32;;;;;;;34.53;22.17;;;;;;;2.76;93.70;99601.44;1831391;78;21558;-61
2021/01/04 04:18:01;;;;;;;28.30;18.55;;;;;;;2.70;93.84;99601.42;1831358;78;21402;-62
2021/01/04 04:20:29;;;;;;;88.37;41.60;;;;;;;2.66;94.04;99607.42;1831238;78;21102;-62
2021/01/04 04:22:57;;;;;;;216.55;98.33;;;;;;;2.64;94.27;99609.09;1831493;78;21125;-61
2021/01/04 04:25:25;;;;;;;219.85;107.92;;;;;;;2.66;94.44;99593.73;1831423;78;21141;-63
2021/01/04 04:27:55;;;;;;;59.33;32.75;;;;;;;2.68;94.53;99582.60;1831306;78;21189;-61
2021/01/04 04:30:24;;;;;;;36.77;21.75;;;;;;;2.72;94.57;99577.91;1831414;78;21332;-62
2021/01/04 04:32:56;;;;;;;40.63;26.33;;;;;;;2.77;94.58;99586.45;1831464;78;21169;-62
2021/01/04 04:35:24;;;;;;;31.70;21.00;;;;;;;2.83;94.63;99586.90;1831521;78;21563;-63
2021/01/04 04:37:52;;;;;;;26.75;18.37;;;;;;;2.85;94.35;99581.33;1831480;78;21102;-63
2021/01/04 04:40:34;;;;;;;30.75;19.52;;;;;;;2.86;94.35;99580.90;1831233;78;21077;-65
2021/01/04 04:43:12;;;;;;;28.67;18.10;;;;;;;2.90;94.41;99592.90;1831377;78;21194;-63
2021/01/04 04:45:40;;;;;;;43.58;28.42;;;;;;;2.92;94.37;99603.59;1827613;78;21205;-63
2021/01/04 04:48:41;;;;;;;34.60;23.98;;;;;;;2.96;94.33;99598.91;1799975;78;21046;-63
2021/01/04 04:51:26;;;;;;;46.80;30.00;;;;;;;2.99;94.38;99597.61;1831351;78;21058;-62
2021/01/04 04:54:12;;;;;;;36.35;24.50;;;;;;;3.04;94.33;99595.05;1831415;78;21129;-62
2021/01/04 04:56:46;;;;;;;49.48;30.50;;;;;;;3.11;94.11;99590.78;1831327;78;21253;-63
2021/01/04 04:59:34;;;;;;;32.20;23.85;;;;;;;3.13;93.74;99585.20;1831430;78;21110;-62
2021/01/04 05:02:27;;;;;;;31.87;22.32;;;;;;;3.16;93.64;99583.91;1831380;78;21180;-63
2021/01/04 05:05:25;;;;;;;28.70;19.87;;;;;;;3.16;93.84;99592.89;1831173;78;21133;-63
2021/01/04 05:08:11;;;;;;;;;;;;;;;3.16;93.78;99591.18;1834165;78;21546;-62
2021/01/04 05:10:39;;;;;;;25.72;16.65;;;;;;;3.20;93.83;99589.48;1831409;78;21213;-62
2021/01/04 05:13:26;;;;;;;29.40;20.40;;;;;;;3.23;93.81;99604.89;1831325;78;21094;-62
2021/01/04 05:16:13;;;;;;;61.15;38.73;;;;;;;3.22;93.44;99623.30;1831384;78;21098;-62
2021/01/04 05:18:59;;;;;;;;;;;;;;;3.14;93.09;99633.15;1833976;78;21145;-61
2021/01/04 05:21:38;;;;;;;22.93;16.95;;;;;;;3.05;92.90;99639.99;1831358;78;20215;-63
2021/01/04 05:24:23;;;;;;;21.27;14.93;;;;;;;2.95;92.39;99637.00;1831218;78;21417;-62
2021/01/04 05:27:41;;;;;;;22.62;16.42;;;;;;;2.82;92.08;99636.54;1831334;78;21149;-62
2021/01/04 05:30:37;;;;;;;23.18;16.30;;;;;;;2.67;92.08;99630.09;1831394;78;21200;-62
2021/01/04 05:33:58;;;;;;;24.72;17.90;;;;;;;2.54;92.27;99642.45;1831292;78;21109;-62
2021/01/04 05:37:11;;;;;;;27.87;19.20;;;;;;;2.41;92.27;99653.08;1831204;78;21105;-62
2021/01/04 05:40:04;;;;;;;20.45;15.53;;;;;;;2.23;92.47;99662.86;1830273;78;21425;-62
2021/01/04 05:42:53;;;;;;;22.80;15.63;;;;;;;2.15;93.27;99671.80;1831241;78;21149;-62
2021/01/04 05:45:36;;;;;;;21.15;15.53;;;;;;;2.15;93.94;99672.22;1830402;78;21177;-62
2021/01/04 05:48:28;;;;;;;48.45;28.23;;;;;;;2.18;94.12;99668.38;1778394;80;21097;-63
2021/01/04 05:51:17;;;;;;;47.78;28.62;;;;;;;2.17;94.17;99673.08;1790702;80;21053;-63
2021/01/04 05:53:45;;;;;;;50.17;28.65;;;;;;;2.18;94.27;99679.92;1790585;80;21477;-62
2021/01/04 05:56:26;;;;;;;37.98;21.37;;;;;;;2.19;94.30;99686.76;1844889;77;21128;-63
2021/01/04 05:59:12;;;;;;;43.13;25.82;;;;;;;2.20;94.55;99683.38;1844934;77;21089;-63
2021/01/04 06:01:42;;;;;;;53.78;30.10;;;;;;;2.23;94.82;99683.38;1834782;77;21190;-62
2021/01/04 06:04:24;;;;;;;46.45;25.57;;;;;;;2.25;95.22;99679.09;1817290;77;21594;-64
2021/01/04 06:06:58;;;;;;;29.15;20.72;;;;;;;2.32;95.48;99678.70;1813102;79;21372;-64
2021/01/04 06:09:27;;;;;;;32.10;24.25;;;;;;;2.40;95.53;99666.77;1823210;77;21385;-66
2021/01/04 06:11:58;;;;;;;60.48;36.50;;;;;;;2.46;95.52;99665.09;1849476;77;21172;-64
2021/01/04 06:14:29;;;;;;;53.55;35.45;;;;;;;2.55;95.56;99665.55;1852542;77;21138;-64
2021/01/04 06:17:00;;;;;;;32.65;24.82;;;;;;;2.61;95.37;99657.02;1815936;77;21097;-63
2021/01/04 06:19:38;;;;;;;27.48;21.25;;;;;;;2.65;95.13;99653.62;1834017;77;21444;-63
2021/01/04 06:22:14;;;;;;;22.42;17.85;;;;;;;2.63;94.96;99654.02;1821439;77;21664;-63
2021/01/04 06:24:43;;;;;;;27.45;18.00;;;;;;;2.63;95.03;99662.58;1828017;77;21136;-63
2021/01/04 06:27:34;;;;;;;26.50;18.85;;;;;;;2.62;95.00;99659.58;1825338;77;21179;-62
2021/01/04 06:30:40;;;;;;;63.65;31.65;;;;;;;2.62;94.96;99653.59;1801979;79;21166;-62
2021/01/04 06:33:19;;;;;;;47.13;26.37;;;;;;;2.57;94.77;99648.47;1778032;80;22140;-63
2021/01/04 06:35:50;;;;;;;40.55;24.65;;;;;;;2.53;94.72;99640.73;1778492;80;21202;-63
2021/01/04 06:38:28;;;;;;;38.05;23.47;;;;;;;2.47;94.79;99630.02;1771462;80;21139;-63
2021/01/04 06:40:56;;;;;;;49.42;28.75;;;;;;;2.46;94.96;99629.59;1770207;80;21129;-64
2021/01/04 06:43:28;;;;;;;50.08;32.88;;;;;;;2.45;95.12;99627.45;1761328;80;21166;-63
2021/01/04 06:46:42;;;;;;;47.48;31.52;;;;;;;2.45;95.20;99636.44;1741468;81;21400;-62
2021/01/04 06:49:22;;;;;;;96.57;50.43;;;;;;;2.47;95.24;99636.00;1754983;81;21104;-62
2021/01/04 06:52:31;;;;;;;46.90;26.62;;;;;;;2.50;95.46;99636.04;1743162;82;21140;-62
2021/01/04 06:55:37;;;;;;;44.93;27.50;;;;;;;2.58;95.70;99641.19;1760121;81;21632;-63
2021/01/04 06:58:25;;;;;;;42.93;22.25;;;;;;;2.65;95.90;99640.36;1766072;80;21184;-64
2021/01/04 07:01:32;;;;;;;36.83;21.52;;;;;;;2.73;96.08;99645.52;1749240;81;21401;-64
2021/01/04 07:04:27;;;;;;;31.37;23.90;;;;;;;2.77;96.08;99646.78;1767182;80;22069;-63
2021/01/04 07:07:21;;;;;;;35.48;25.00;;;;;;;2.77;96.08;99646.78;1759247;81;21140;-64
2021/01/04 07:10:20;;;;;;;32.70;23.77;;;;;;;2.87;96.43;99654.50;1759548;81;21116;-65
2021/01/04 07:12:56;;;;;;;29.72;21.00;;;;;;;2.93;96.49;99654.52;1758732;81;21981;-64
2021/01/04 07:15:32;;;;;;;33.98;23.70;;;;;;;2.93;96.35;99656.66;1741049;81;22228;-63
2021/01/04 07:18:20;;;;;;;32.48;23.22;;;;;;;2.94;96.27;99656.23;1758763;81;21201;-63
2021/01/04 07:21:14;;;;;;;41.50;26.62;;;;;;;2.95;96.31;99654.97;1751015;81;21197;-65
2021/01/04 07:24:11;;;;;;;39.50;26.62;;;;;;;2.97;96.36;99660.10;1755861;81;21136;-63
2021/01/04 07:27:05;;;;;;;26.52;20.68;;;;;;;2.99;96.44;99660.52;1763863;80;21551;-62
2021/01/04 07:30:00;;;;;;;32.35;21.70;;;;;;;3.02;96.50;99660.95;1808016;78;21382;-63
2021/01/04 07:32:58;;;;;;;37.20;26.25;;;;;;;3.05;96.60;99660.97;1843691;77;21163;-64
2021/01/04 07:35:37;;;;;;;40.95;25.35;;;;;;;3.14;96.70;99672.96;1857710;77;21101;-63
2021/01/04 07:38:29;;;;;;;47.88;28.62;;;;;;;3.22;96.56;99666.97;1857824;77;21172;-63
2021/01/04 07:41:21;;;;;;;76.28;44.42;;;;;;;3.28;96.44;99677.69;1857776;77;21096;-63
2021/01/04 07:44:25;;;;;;;45.60;28.07;;;;;;;3.31;96.28;99685.38;1856915;77;21354;-63
2021/01/04 07:47:27;;;;;;;38.23;24.50;;;;;;;3.33;96.23;99691.41;1857624;77;21163;-62
2021/01/04 07:50:15;;;;;;;137.45;66.20;;;;;;;3.35;96.08;99688.40;1843858;77;21152;-63
2021/01/04 07:53:30;;;;;;;68.57;43.23;;;;;;;3.38;96.20;99687.53;1841875;78;21463;-62
2021/01/04 07:56:23;;;;;;;64.10;35.17;;;;;;;3.39;96.00;99688.81;1786961;79;21160;-63
2021/01/04 07:59:18;;;;;;;53.80;30.45;;;;;;;3.40;96.11;99688.38;1787158;80;22231;-63
2021/01/04 08:02:07;;;;;;;38.58;24.25;;;;;;;3.38;96.01;99688.39;1787252;80;21151;-62
2021/01/04 08:05:09;;;;;;;50.10;35.43;;;;;;;3.38;96.12;99683.25;1845720;77;21299;-63
2021/01/04 08:08:04;;;;;;;49.08;35.52;;;;;;;3.40;96.31;99678.99;1786932;80;21247;-64
2021/01/04 08:10:44;;;;;;;39.48;26.20;;;;;;;3.41;96.43;99684.55;1766126;80;21147;-63
2021/01/04 08:13:32;;;;;;;28.65;19.82;;;;;;;3.41;96.53;99688.41;1788332;80;22034;-62
2021/01/04 08:16:11;;;;;;;38.75;24.63;;;;;;;3.38;96.63;99687.11;1788226;80;21060;-64
2021/01/04 08:18:40;;;;;;;46.90;30.30;;;;;;;3.38;96.75;99692.67;1788120;80;21049;-63
2021/01/04 08:21:51;;;;;;;32.78;23.65;;;;;;;3.37;96.96;99690.97;1776610;80;21634;-62
2021/01/04 08:24:43;;;;;;;28.87;19.57;;;;;;;3.37;97.24;99688.39;1783096;80;21119;-63
2021/01/04 08:27:40;;;;;;;24.18;18.45;;;;;;;3.41;97.63;99702.55;1722406;82;22254;-64
2021/01/04 08:30:17;;;;;;;25.75;18.73;;;;;;;3.46;97.87;99703.81;1727157;83;21263;-63
2021/01/04 08:33:01;;;;;;;25.60;18.95;;;;;;;3.50;97.99;99709.39;1742946;81;21255;-63
2021/01/04 08:35:37;;;;;;;27.48;20.88;;;;;;;3.52;98.13;99699.97;1747540;82;21215;-63
2021/01/04 08:38:30;;;;;;;27.10;20.43;;;;;;;3.55;98.30;99696.09;1747981;82;21159;-63
2021/01/04 08:41:12;;;;;;;27.98;20.00;;;;;;;3.60;98.37;99696.53;1719210;82;21377;-63
2021/01/04 08:43:45;;;;;;;27.70;20.70;;;;;;;3.62;98.40;99689.66;1733896;79;21178;-65
2021/01/04 08:46:30;;;;;;;30.97;20.35;;;;;;;3.68;98.43;99686.67;1741211;80;21633;-65
2021/01/04 08:49:22;;;;;;;21.23;18.15;;;;;;;3.71;98.35;99692.69;1778324;80;21192;-65
2021/01/04 08:51:51;;;;;;;23.62;18.37;;;;;;;3.73;98.28;99690.11;1726019;83;21176;-65
2021/01/04 08:54:29;;;;;;;27.35;18.77;;;;;;;3.75;98.36;99689.67;1754629;80;21386;-65
2021/01/04 08:57:15;;;;;;;25.55;18.32;;;;;;;3.78;98.46;99691.83;1796858;79;21185;-62
2021/01/04 09:00:01;;;;;;;24.65;17.92;;;;;;;3.85;98.60;99693.94;1744678;82;21209;-62
2021/01/04 09:02:39;;;;;;;26.15;18.85;;;;;;;3.93;98.62;99687.09;1779699;80;21041;-62
2021/01/04 09:05:15;;;;;;;;;;;;;;;4.03;98.72;99687.92;1782369;80;21118;-62
2021/01/04 09:07:51;;;;;;;25.70;18.15;;;;;;;4.09;98.61;99683.63;1785104;80;21377;-63
2021/01/04 09:10:24;;;;;;;25.08;19.52;;;;;;;4.12;98.41;99685.33;1744948;81;21140;-63
2021/01/04 09:12:56;;;;;;;30.65;19.50;;;;;;;4.13;98.37;99687.88;1746225;80;21241;-63
2021/01/04 09:15:32;;;;;;;25.17;18.52;;;;;;;4.17;98.41;99693.47;1758008;80;21141;-63
2021/01/04 09:18:08;;;;;;;23.95;19.05;;;;;;;4.21;98.36;99688.30;1793620;79;21093;-62
2021/01/04 09:21:19;;;;;;;31.75;22.30;;;;;;;4.22;98.22;99691.29;1757163;80;22125;-64
2021/01/04 09:23:52;;;;;;;38.15;26.97;;;;;;;4.21;98.17;99677.57;1734056;80;21212;-64
2021/01/04 09:26:32;;;;;;;74.37;53.40;;;;;;;4.18;98.18;99677.16;1764465;81;21574;-64
2021/01/04 09:29:15;;;;;;;51.45;31.57;;;;;;;4.21;98.18;99678.86;1810692;79;21070;-64
2021/01/04 09:31:55;;;;;;;86.22;40.98;;;;;;;4.25;98.35;99687.01;1810484;79;21133;-63
2021/01/04 09:34:29;;;;;;;81.17;41.37;;;;;;;4.30;98.31;99681.83;1810654;79;21427;-63
2021/01/04 09:37:12;;;;;;;61.70;37.23;;;;;;;4.34;98.25;99687.41;1769217;79;21211;-63
2021/01/04 09:39:45;;;;;;;63.85;36.15;;;;;;;4.36;98.23;99680.53;1748552;80;21090;-63
2021/01/04 09:42:29;;;;;;;95.87;50.20;;;;;;;4.44;98.30;99676.20;1724750;80;21097;-63
2021/01/04 09:45:23;;;;;;;122.30;59.13;;;;;;;4.53;98.13;99669.73;1762307;80;21126;-63
2021/01/04 09:48:50;;;;;;;73.80;40.70;;;;;;;4.63;98.12;99667.55;1792001;78;21135;-63
2021/01/04 09:52:03;;;;;;;62.25;31.50;;;;;;;4.74;97.99;99660.61;1755759;80;21150;-62
2021/01/04 09:54:48;;;;;;;81.85;38.95;;;;;;;4.81;97.61;99647.70;1799349;79;21136;-62
2021/01/04 09:57:22;;;;;;;78.57;41.45;;;;;;;4.87;97.50;99640.80;1832124;78;21544;-63
2021/01/04 09:59:56;;;;;;;46.42;27.65;;;;;;;4.93;97.34;99644.63;1830693;78;21124;-63
2021/01/04 10:02:30;;;;;;;50.88;29.85;;;;;;;5.00;97.34;99636.44;1822947;78;21141;-63
2021/01/04 10:05:14;;;;;;;115.05;55.75;;;;;;;5.05;96.96;99634.66;1810266;79;21210;-64
2021/01/04 10:08:19;;;;;;;46.95;29.42;;;;;;;5.10;96.82;99636.78;1815920;78;21238;-63
2021/01/04 10:11:30;;;;;;;57.70;31.95;;;;;;;5.15;96.48;99649.65;1797629;79;21135;-64
2021/01/04 10:14:31;;;;;;;89.00;45.23;;;;;;;5.23;96.34;99650.44;1814663;78;21128;-65
2021/01/04 10:17:45;;;;;;;67.27;36.28;;;;;;;5.25;96.16;99643.11;1798371;79;21162;-63
2021/01/04 10:21:07;;;;;;;54.13;31.93;;;;;;;5.33;96.03;99642.20;1796999;79;21210;-64
2021/01/04 10:23:49;;;;;;;64.35;33.88;;;;;;;5.40;95.77;99660.18;1797972;79;21624;-64
2021/01/04 10:26:19;;;;;;;58.00;30.32;;;;;;;5.47;95.64;99657.13;1802576;78;21828;-65
2021/01/04 10:28:49;;;;;;;47.33;25.85;;;;;;;5.57;95.39;99660.88;1813452;78;21210;-65
2021/01/04 10:31:28;;;;;;;42.13;24.77;;;;;;;5.61;95.17;99656.58;1801964;78;21201;-66
2021/01/04 10:34:10;;;;;;;29.75;19.95;;;;;;;5.62;94.93;99658.28;1766998;81;21208;-65
2021/01/04 10:36:59;;;;;;;40.08;23.75;;;;;;;5.59;94.63;99658.29;1768614;81;21170;-64
2021/01/04 10:39:38;;;;;;;37.10;23.35;;;;;;;5.58;94.69;99661.73;1735166;82;21157;-64
2021/01/04 10:42:24;;;;;;;31.90;20.97;;;;;;;5.53;94.36;99654.50;1769135;81;21189;-64
2021/01/04 10:45:08;;;;;;;26.35;18.82;;;;;;;5.43;94.31;99657.56;1798496;79;21353;-63
2021/01/04 10:47:55;;;;;;;28.27;18.67;;;;;;;5.38;94.46;99652.05;1799421;79;21064;-65
2021/01/04 10:50:39;;;;;;;22.60;16.55;;;;;;;5.34;94.54;99656.80;1799218;79;21071;-64
2021/01/04 10:53:34;;;;;;;24.52;17.45;;;;;;;5.32;94.78;99663.25;1801800;78;21132;-65
2021/01/04 10:56:25;;;;;;;25.43;17.35;;;;;;;5.33;94.98;99653.80;1826348;78;21530;-65
2021/01/04 10:59:12;;;;;;;68.50;26.02;;;;;;;5.34;94.94;99650.34;1808576;78;21632;-65
2021/01/04 11:01:43;;;;;;;65.00;28.90;;;;;;;5.33;94.98;99651.22;1762754;79;21187;-64
2021/01/04 11:04:18;;;;;;;48.78;23.35;;;;;;;5.27;94.91;99652.97;1736336;80;21169;-64
2021/01/04 11:07:16;;;;;;;46.18;23.50;;;;;;;5.22;95.02;99659.91;1793214;80;21179;-65
2021/01/04 11:09:47;;;;;;;42.53;22.85;;;;;;;5.19;95.23;99652.61;1761847;81;21175;-65
2021/01/04 11:12:26;;;;;;;38.80;21.62;;;;;;;5.18;95.46;99647.89;1761679;81;21384;-65
2021/01/04 11:15:06;;;;;;;38.67;20.57;;;;;;;5.18;95.54;99651.75;1761999;81;21174;-64
2021/01/04 11:17:38;;;;;;;30.05;18.10;;;;;;;5.16;95.66;99652.20;1762892;81;21171;-65
2021/01/04 11:20:17;;;;;;;43.85;24.12;;;;;;;5.16;95.73;99651.36;1762578;81;21474;-63
2021/01/04 11:22:47;;;;;;;37.08;22.13;;;;;;;5.15;95.92;99653.52;1762831;81;21191;-64
2021/01/04 11:25:16;;;;;;;33.98;23.80;;;;;;;5.17;96.08;99651.34;1755147;81;21375;-63
2021/01/04 11:27:49;;;;;;;38.92;22.30;;;;;;;5.20;96.19;99642.72;1763745;81;21069;-63
2021/01/04 11:30:30;;;;;;;36.08;20.97;;;;;;;5.22;96.25;99641.86;1764095;81;21139;-63
2021/01/04 11:33:07;;;;;;;28.90;20.15;;;;;;;5.24;96.21;99634.96;1763755;81;21995;-64
2021/01/04 11:35:39;;;;;;;28.40;18.80;;;;;;;5.25;96.22;99635.81;1775954;78;21171;-63
2021/01/04 11:38:11;;;;;;;31.07;19.30;;;;;;;5.26;96.29;99636.23;1788573;80;21396;-64
2021/01/04 11:40:47;;;;;;;33.95;20.35;;;;;;;5.26;96.28;99631.93;1785987;80;21086;-65
2021/01/04 11:43:25;;;;;;;26.77;17.90;;;;;;;5.23;96.17;99633.26;1782038;80;21585;-65
2021/01/04 11:46:21;;;;;;;34.95;20.97;;;;;;;5.19;96.25;99635.42;1766483;80;21186;-64
2021/01/04 11:48:53;;;;;;;26.37;17.05;;;;;;;5.12;96.36;99640.20;1762850;81;21124;-65
2021/01/04 11:51:27;;;;;;;21.80;15.38;;;;;;;5.04;96.51;99641.97;1770265;78;22022;-64
2021/01/04 11:53:58;;;;;;;23.75;15.20;;;;;;;5.00;96.65;99645.45;1773441;80;21157;-65
2021/01/04 11:56:30;;;;;;;24.27;15.95;;;;;;;4.97;96.87;99645.45;1792572;79;21168;-66
2021/01/04 11:59:02;;;;;;;41.28;24.50;;;;;;;4.97;97.03;99640.30;1793031;80;21180;-65
2021/01/04 12:01:36;;;;;;;39.25;23.57;;;;;;;4.94;97.18;99632.17;1795564;78;21159;-65
2021/01/04 12:04:08;;;;;;;21.20;12.95;;;;;;;4.93;97.25;99624.03;1779137;78;21196;-64
2021/01/04 12:06:40;;;;;;;21.45;15.35;;;;;;;4.88;97.42;99620.61;1782131;78;21204;-64
2021/01/04 12:09:14;;;;;;;29.92;17.80;;;;;;;4.87;97.70;99617.63;1788916;80;21110;-64
2021/01/04 12:11:46;;;;;;;28.38;18.95;;;;;;;4.86;97.83;99613.34;1793849;80;21182;-63
2021/01/04 12:14:18;;;;;;;25.88;16.90;;;;;;;4.87;98.11;99610.33;1795437;80;21110;-64
2021/01/04 12:16:51;;;;;;;31.68;19.62;;;;;;;4.86;98.28;99604.33;1795401;80;21382;-65
2021/01/04 12:19:23;;;;;;;32.75;18.85;;;;;;;4.87;98.55;99608.61;1794263;80;21210;-63
2021/01/04 12:21:55;;;;;;;21.95;15.20;;;;;;;4.87;98.72;99609.89;1793630;80;21136;-63
2021/01/04 12:24:26;;;;;;;34.27;21.48;;;;;;;4.90;98.85;99607.28;1735729;80;21588;-64
2021/01/04 12:26:57;;;;;;;31.50;19.10;;;;;;;4.94;98.99;99609.42;1794737;80;21133;-63
2021/01/04 12:29:29;;;;;;;28.60;17.90;;;;;;;4.95;99.00;99603.40;1794083;79;21357;-64
2021/01/04 12:32:07;;;;;;;45.00;22.27;;;;;;;4.96;99.02;99599.95;1795271;80;21126;-64
2021/01/04 12:34:44;;;;;;;35.80;20.50;;;;;;;4.95;99.20;99605.98;1781542;79;21175;-64
2021/01/04 12:37:15;;;;;;;36.63;20.00;;;;;;;5.00;99.43;99599.94;1822054;78;21955;-63
2021/01/04 12:39:47;;;;;;;36.83;21.45;;;;;;;5.06;99.57;99595.14;1791691;78;21863;-64
2021/01/04 12:42:15;;;;;;;50.10;26.80;;;;;;;5.15;99.60;99593.81;1789563;80;21394;-62